createdAt,value
2022-08-05T00:06:04.767Z,47.25
2022-08-05T00:21:46.683Z,47.84
2022-08-05T00:53:11.356Z,47.8
2022-08-05T01:08:54.189Z,48.33
2022-08-05T01:24:36.608Z,48.54
2022-08-05T01:40:18.669Z,49.33
2022-08-05T01:56:00.787Z,50.63
2022-08-05T02:11:43.640Z,51.68
2022-08-05T02:12:30.923Z,51.64
2022-08-05T02:28:13.087Z,52.82
2022-08-05T02:43:55.378Z,53.51
2022-08-05T02:59:37.538Z,55.31
2022-08-05T03:15:19.947Z,56.53
2022-08-05T03:31:02.315Z,57.97
2022-08-05T03:46:45.146Z,58.67
2022-08-05T04:02:27.449Z,59.22
2022-08-05T04:18:09.932Z,59.88
2022-08-05T04:33:52.784Z,60.53
2022-08-05T04:49:35.565Z,60.34
2022-08-05T05:05:17.916Z,59.78
2022-08-05T05:21:00.750Z,58.74
2022-08-05T05:36:43.289Z,57.5
2022-08-05T05:52:25.667Z,57.09
2022-08-05T06:08:08.456Z,57
2022-08-05T06:23:50.677Z,56.86
2022-08-05T06:39:33.547Z,55.29
2022-08-05T06:55:16.249Z,53.76
2022-08-05T07:10:58.286Z,52.15
2022-08-05T07:26:40.243Z,50.67
2022-08-05T07:42:22.682Z,48.98
2022-08-05T07:58:05.176Z,48.73
2022-08-05T08:13:48.013Z,47.13
2022-08-05T08:29:30.927Z,47.02
2022-08-05T08:45:16.163Z,45.15
2022-08-05T09:00:56.138Z,50.13
2022-08-05T09:16:39.001Z,54.53
2022-08-05T09:32:29.911Z,54.74
2022-08-05T09:48:04.291Z,54.26
2022-08-05T10:03:46.210Z,55.5
2022-08-05T10:19:28.501Z,59.96
2022-08-05T10:35:10.567Z,67.25
2022-08-05T10:50:53.064Z,65.74
2022-08-05T11:06:35.194Z,64.81
2022-08-05T11:22:17.601Z,71.33
2022-08-05T11:38:14.207Z,59.1
2022-08-05T11:53:42.292Z,49.47
2022-08-05T12:09:25.015Z,47.12
2022-08-05T12:25:07.613Z,40.58
2022-08-05T12:40:49.824Z,32.88
2022-08-05T12:56:31.751Z,30.97
2022-08-05T13:12:13.936Z,28.64
2022-08-05T13:27:56.642Z,28.97
2022-08-05T13:43:39.245Z,30.02
2022-08-05T13:59:21.515Z,35
2022-08-05T14:15:03.846Z,38.38
2022-08-05T14:30:46.328Z,37.15
2022-08-05T14:46:28.616Z,41.16
2022-08-05T15:02:10.972Z,43.35
2022-08-05T15:17:53.351Z,46.17
2022-08-05T15:33:35.276Z,49.37
2022-08-05T15:49:17.490Z,53.33
2022-08-05T16:05:00.219Z,55.3
2022-08-05T16:20:42.791Z,57.27
2022-08-05T16:36:25.205Z,60.14
2022-08-05T16:52:07.833Z,60.6
2022-08-05T17:07:50.035Z,61.18
2022-08-05T17:23:31.974Z,61.5
2022-08-05T17:39:14.927Z,63.11
2022-08-05T17:54:57.800Z,63.58
2022-08-05T18:10:40.750Z,64.7
2022-08-05T18:26:23.193Z,63.77
2022-08-05T18:42:05.699Z,64.5
2022-08-05T18:57:48.355Z,65.41
2022-08-05T19:13:35.505Z,66.19
2022-08-05T19:29:13.661Z,67.43
2022-08-05T19:44:56.540Z,62.27
2022-08-05T20:00:38.820Z,60.13
2022-08-05T20:16:21.345Z,58.07
2022-08-05T20:32:03.676Z,57.75
2022-08-05T20:47:45.943Z,57.97
2022-08-05T21:03:28.886Z,59
2022-08-05T21:19:11.044Z,60.05
2022-08-05T21:34:53.348Z,62.98
2022-08-05T21:50:36.304Z,66.05
2022-08-05T22:06:18.531Z,66.61
2022-08-05T22:22:00.929Z,67.61
2022-08-05T22:53:26.108Z,68.57
2022-08-05T23:09:08.288Z,68.29
2022-08-05T23:24:51.156Z,67.54
2022-08-05T23:40:33.799Z,63.81
2022-08-05T23:56:15.824Z,64.68
